Hlavní strana
METAR-TAF:

METAR-TAF

Letiště :

Saurimo, Angola

zeměpisná šířka: 9-41-20S, zeměpisná délka: 20-25-55E, výška: 1092 m

Aktuální stav počasí

Zpráva byla vytvořena před 24 minutami, v 13:00 UTC
Severní vítr 6 kt
Teplota 31°C
Vlhkost vzduchu 43%
Tlak 1016 hPa
Viditelnost 10 km a více
Žádná oblačnost pod 1500 m, nevyskytují se cumulonimby.

METAR: FNSA 191300Z 36006KT CAVOK 31/17 Q1016

Čas: 14:24 (13:24 UTC)

Předpověď počasí

Zpráva byla vytvořena před 2 hodinami a 39 minutami, v 10:45 UTC
Předpověď platná od 19 v 12 UTC do 19 v 24 UTC
Západní vítr 8 kt
Viditelnost 10 km a více
Polojasno ve výšce 2500 ft
Změna
od 19 v 20 UTC do 19 v 22 UTC
vítr z různých směrů 3 kt
Viditelnost: 8000 m
Polojasno ve výšce 1500 ft
Oblačno až skoro zataženo ve výšce 2200 ft
mrholení

TAF: FNSA 191045Z 1912/1924 28008KT 9999 SCT025 BECMG 1920/1922 VRB03KT 8000 DZ SCT015 BKN022

Stav a předpovědi počasí z více než 4 000 letišť (zprávy METAR a TAF).

Červené a žluté tečky na mapě představují dostupné meteorologické stanice.

Když kurzor umístíte na tečku, zobrazí se název stanice.

Pak kliknutím zobrazíte stav a předpověď počasí.

Chcete-li změnit mapu, kliknutím na zelené tlačítko se znaménkem +mapu přiblížíte, kliknutím na zelené tlačítko se znaménkem – mapu oddálíte a kliknutím na zelené šipky přejdete na sousední mapy.


METAR-TAF: